Wendy C — WYB6131 — position and weather

sailwx.info

Track history (hours):
 
Tides and Currents Weather Stations Pressure Air Temp Water Temp Dewpoint Dewpoint Depression Visibility Wind Speed Wind Dir Waves Ship Positions

Wendy C

Owner: Harbor Towing & Fleeting, Inc., Metairie, LA. More information available from US FCC via Universal Licensing System and Coast Guard Vessel Documentation Center.

Last reported at 2015-Apr-20 23:20 UTC. Time now 2015-Apr-21 14:39 UTC.
Position N 29°56' W 089°60'.

Length 19 m; draft 3 m.

Type: Towing. MMSI: 366160126.

Date/timePositionNaut miles runAvg speedWind from/ knotsBaromVisibWave heightAir tempDewpointWater temp
2015-Apr-20 23:20N 29°56' W 089°60'0 0.1
2015-Apr-20 22:32N 29°56' W 089°60'0 0.1
2015-Apr-20 20:14N 29°56' W 090°00'2 3.0
2015-Apr-20 19:33N 29°58' W 090°02'2 2.3
2015-Apr-20 18:31N 29°60' W 090°00'0 0.1
2015-Apr-20 17:26N 29°60' W 090°00'2 2.6
2015-Apr-20 16:30N 29°58' W 090°02'2 2.1
2015-Apr-20 15:32N 29°56' W 090°00'0 0.2
2015-Apr-20 14:31N 29°56' W 090°00'0 0.0
2015-Apr-20 13:21N 29°56' W 090°00'0 0.0
2015-Apr-20 12:33N 29°56' W 090°00'0 0.0
2015-Apr-20 11:33N 29°56' W 090°00'0 0.0
2015-Apr-20 10:32N 29°56' W 090°00'0 0.0
2015-Apr-20 09:31N 29°56' W 090°00'0 0.4
2015-Apr-20 08:31N 29°56' W 089°60'2 2.5
2015-Apr-20 07:33N 29°58' W 090°02'0 0.2
2015-Apr-20 06:31N 29°58' W 090°02'1 1.3
2015-Apr-20 05:33N 29°59' W 090°01'3 2.9
2015-Apr-20 04:29N 30°00' W 089°58'3 2.4
2015-Apr-20 03:16N 30°01' W 089°55'5 6.7
2015-Apr-20 02:28N 29°60' W 090°01'2 2.1
2015-Apr-20 01:23N 29°58' W 090°02'3 0.1
2015-Apr-19 01:09N 29°56' W 089°59'2 1.7
2015-Apr-19 00:10N 29°55' W 089°57'3 4.5
2015-Apr-18 23:32N 29°56' W 090°00'0 0.0
2015-Apr-18 22:32N 29°56' W 090°00'0 0.0
2015-Apr-18 21:33N 29°56' W 090°00'0 0.0
2015-Apr-18 20:25N 29°56' W 090°00'0 0.0
2015-Apr-18 19:28N 29°56' W 090°00'0 0.0
2015-Apr-18 18:26N 29°56' W 090°00'0 0.0
2015-Apr-18 17:32N 29°56' W 090°00'2 1.9
2015-Apr-18 16:23N 29°55' W 089°59'1 0.4
2015-Apr-18 14:33N 29°55' W 089°58'1 0.5
2015-Apr-18 12:14N 29°55' W 089°57'5 7.6
2015-Apr-18 11:32N 29°58' W 090°02'0 0.0
2015-Apr-18 10:33N 29°58' W 090°02'1 0.9
2015-Apr-18 09:33N 29°58' W 090°02'3 2.2
2015-Apr-18 08:13N 30°00' W 089°59'0 0.5
2015-Apr-18 07:33N 29°60' W 089°59'3 0.2
2015-Apr-17 17:29N 29°57' W 090°01'1 0.7
2015-Apr-17 15:29N 29°56' W 090°00'2 2.0
2015-Apr-17 14:24N 29°58' W 090°02'1 1.2
2015-Apr-17 13:33N 29°59' W 090°01'0 0.0
2015-Apr-17 12:33N 29°59' W 090°01'0 0.0
2015-Apr-17 11:32N 29°59' W 090°01'7 5.9
2015-Apr-17 10:18N 30°01' W 089°53'0 0.0
2015-Apr-17 09:31N 30°01' W 089°53'0 0.0
2015-Apr-17 08:31N 30°01' W 089°53'5 5.3
2015-Apr-17 07:31N 29°60' W 089°59'3 3.1
2015-Apr-17 06:33N 29°58' W 090°02'0 0.2
2015-Apr-17 05:31N 29°58' W 090°02'1 1.2
2015-Apr-17 04:33N 29°57' W 090°01'1 0.8
2015-Apr-17 03:32N 29°56' W 090°00'2 2.4
2015-Apr-17 02:33N 29°58' W 090°02'1 0.7
2015-Apr-17 01:32N 29°58' W 090°02'2 1.6
2015-Apr-17 00:32N 29°59' W 090°01'2 1.7
2015-Apr-16 23:33N 29°58' W 090°02'2 1.9
2015-Apr-16 22:33N 29°56' W 090°00'2 1.6
2015-Apr-16 21:30N 29°56' W 089°59'1 0.5
2015-Apr-16 20:24N 29°56' W 089°58'0 0.1
2015-Apr-16 19:27N 29°56' W 089°58'2 2.2
2015-Apr-16 18:31N 29°56' W 090°00'  
2015-Apr-14 07:13N 29°58' W 090°02'1 0.9
2015-Apr-14 06:19N 29°58' W 090°02'2 2.3
2015-Apr-14 05:24N 29°60' W 090°01'2 2.2
2015-Apr-14 04:24N 29°58' W 090°02'2 2.2
2015-Apr-14 03:33N 29°56' W 090°00'0 0.0
2015-Apr-14 02:33N 29°56' W 090°00'0 0.0
2015-Apr-14 01:22N 29°56' W 090°00'0 0.0
2015-Apr-14 00:31N 29°56' W 090°00'0 0.1
2015-Apr-13 23:31N 29°56' W 090°00'0 0.1
2015-Apr-13 22:31N 29°56' W 090°00'0 0.0
2015-Apr-13 21:33N 29°56' W 090°00'0 0.0
2015-Apr-13 20:33N 29°56' W 090°00'0 0.4
2015-Apr-13 19:30N 29°56' W 089°60'3 1.9
2015-Apr-13 18:04N 29°55' W 089°57'3 5.8
2015-Apr-13 17:32N 29°56' W 090°00'0 0.0
2015-Apr-13 16:33N 29°56' W 090°00'0 0.0
2015-Apr-13 15:31N 29°56' W 090°00'0 0.0
2015-Apr-13 14:26N 29°56' W 090°00'0 0.0
2015-Apr-13 13:30N 29°56' W 090°00'0 0.0
2015-Apr-13 12:04N 29°56' W 090°00'2 0.1
2015-Apr-12 20:28N 29°58' W 090°02'2 0.5
2015-Apr-12 17:08N 29°56' W 090°00'0 0.0
2015-Apr-12 16:33N 29°56' W 090°00'2 1.4
2015-Apr-12 15:09N 29°58' W 090°02'1 1.5
2015-Apr-12 14:24N 29°59' W 090°01'5 4.6
2015-Apr-12 13:22N 30°00' W 089°56'5 5.5
2015-Apr-12 12:21N 29°58' W 090°02'2 2.5
2015-Apr-12 11:33N 29°56' W 090°00'2 2.2
2015-Apr-12 10:33N 29°58' W 090°02'1 0.6
2015-Apr-12 09:33N 29°58' W 090°02'0 0.2
2015-Apr-12 07:32N 29°58' W 090°02'2 1.8
2015-Apr-12 06:30N 29°60' W 090°01'1 1.2
2015-Apr-12 05:30N 29°60' W 089°59'1 1.5
2015-Apr-12 04:32N 29°60' W 090°01'2 2.0
2015-Apr-12 03:33N 29°58' W 090°02'1 1.0
2015-Apr-12 02:33N 29°58' W 090°03'1 1.3
2015-Apr-12 01:32N 29°57' W 090°02'1 1.2
2015-Apr-12 00:32N 29°56' W 090°00'2 1.1
2015-Apr-11 22:33N 29°55' W 089°58'1 0.5
2015-Apr-11 20:09N 29°54' W 089°59'1 0.8
2015-Apr-11 18:31N 29°55' W 089°58'4 2.0
2015-Apr-11 16:27N 29°57' W 090°02'2 0.1
2015-Apr-11 02:18N 29°56' W 090°00'0 0.0
2015-Apr-11 00:32N 29°56' W 090°00'  
Track history (hours):
 
Tides and Currents Weather Stations Pressure Air Temp Water Temp Dewpoint Dewpoint Depression Visibility Wind Speed Wind Dir Waves Ship Positions

Wendy C

Owner: Harbor Towing & Fleeting, Inc., Metairie, LA. More information available from US FCC via Universal Licensing System and Coast Guard Vessel Documentation Center.

Last reported at 2015-Apr-20 23:20 UTC. Time now 2015-Apr-21 14:39 UTC.
Position N 29°56' W 089°60'.

Length 19 m; draft 3 m.

Type: Towing. MMSI: 366160126.

Date/timePositionNaut miles runAvg speedWind from/ knotsBaromVisibWave heightAir tempDewpointWater temp
2015-Apr-20 23:20N 29°56' W 089°60'0 0.1
2015-Apr-20 22:32N 29°56' W 089°60'0 0.1
2015-Apr-20 20:14N 29°56' W 090°00'2 3.0
2015-Apr-20 19:33N 29°58' W 090°02'2 2.3
2015-Apr-20 18:31N 29°60' W 090°00'0 0.1
2015-Apr-20 17:26N 29°60' W 090°00'2 2.6
2015-Apr-20 16:30N 29°58' W 090°02'2 2.1
2015-Apr-20 15:32N 29°56' W 090°00'0 0.2
2015-Apr-20 14:31N 29°56' W 090°00'0 0.0
2015-Apr-20 13:21N 29°56' W 090°00'0 0.0
2015-Apr-20 12:33N 29°56' W 090°00'0 0.0
2015-Apr-20 11:33N 29°56' W 090°00'0 0.0
2015-Apr-20 10:32N 29°56' W 090°00'0 0.0
2015-Apr-20 09:31N 29°56' W 090°00'0 0.4
2015-Apr-20 08:31N 29°56' W 089°60'2 2.5
2015-Apr-20 07:33N 29°58' W 090°02'0 0.2
2015-Apr-20 06:31N 29°58' W 090°02'1 1.3
2015-Apr-20 05:33N 29°59' W 090°01'3 2.9
2015-Apr-20 04:29N 30°00' W 089°58'3 2.4
2015-Apr-20 03:16N 30°01' W 089°55'5 6.7
2015-Apr-20 02:28N 29°60' W 090°01'2 2.1
2015-Apr-20 01:23N 29°58' W 090°02'3 0.1
2015-Apr-19 01:09N 29°56' W 089°59'2 1.7
2015-Apr-19 00:10N 29°55' W 089°57'3 4.5
2015-Apr-18 23:32N 29°56' W 090°00'0 0.0
2015-Apr-18 22:32N 29°56' W 090°00'0 0.0
2015-Apr-18 21:33N 29°56' W 090°00'0 0.0
2015-Apr-18 20:25N 29°56' W 090°00'0 0.0
2015-Apr-18 19:28N 29°56' W 090°00'0 0.0
2015-Apr-18 18:26N 29°56' W 090°00'0 0.0
2015-Apr-18 17:32N 29°56' W 090°00'2 1.9
2015-Apr-18 16:23N 29°55' W 089°59'1 0.4
2015-Apr-18 14:33N 29°55' W 089°58'1 0.5
2015-Apr-18 12:14N 29°55' W 089°57'5 7.6
2015-Apr-18 11:32N 29°58' W 090°02'0 0.0
2015-Apr-18 10:33N 29°58' W 090°02'1 0.9
2015-Apr-18 09:33N 29°58' W 090°02'3 2.2
2015-Apr-18 08:13N 30°00' W 089°59'0 0.5
2015-Apr-18 07:33N 29°60' W 089°59'3 0.2
2015-Apr-17 17:29N 29°57' W 090°01'1 0.7
2015-Apr-17 15:29N 29°56' W 090°00'2 2.0
2015-Apr-17 14:24N 29°58' W 090°02'1 1.2
2015-Apr-17 13:33N 29°59' W 090°01'0 0.0
2015-Apr-17 12:33N 29°59' W 090°01'0 0.0
2015-Apr-17 11:32N 29°59' W 090°01'7 5.9
2015-Apr-17 10:18N 30°01' W 089°53'0 0.0
2015-Apr-17 09:31N 30°01' W 089°53'0 0.0
2015-Apr-17 08:31N 30°01' W 089°53'5 5.3
2015-Apr-17 07:31N 29°60' W 089°59'3 3.1
2015-Apr-17 06:33N 29°58' W 090°02'0 0.2
2015-Apr-17 05:31N 29°58' W 090°02'1 1.2
2015-Apr-17 04:33N 29°57' W 090°01'1 0.8
2015-Apr-17 03:32N 29°56' W 090°00'2 2.4
2015-Apr-17 02:33N 29°58' W 090°02'1 0.7
2015-Apr-17 01:32N 29°58' W 090°02'2 1.6
2015-Apr-17 00:32N 29°59' W 090°01'2 1.7
2015-Apr-16 23:33N 29°58' W 090°02'2 1.9
2015-Apr-16 22:33N 29°56' W 090°00'2 1.6
2015-Apr-16 21:30N 29°56' W 089°59'1 0.5
2015-Apr-16 20:24N 29°56' W 089°58'0 0.1
2015-Apr-16 19:27N 29°56' W 089°58'2 2.2
2015-Apr-16 18:31N 29°56' W 090°00'  
2015-Apr-14 07:13N 29°58' W 090°02'1 0.9
2015-Apr-14 06:19N 29°58' W 090°02'2 2.3
2015-Apr-14 05:24N 29°60' W 090°01'2 2.2
2015-Apr-14 04:24N 29°58' W 090°02'2 2.2
2015-Apr-14 03:33N 29°56' W 090°00'0 0.0
2015-Apr-14 02:33N 29°56' W 090°00'0 0.0
2015-Apr-14 01:22N 29°56' W 090°00'0 0.0
2015-Apr-14 00:31N 29°56' W 090°00'0 0.1
2015-Apr-13 23:31N 29°56' W 090°00'0 0.1
2015-Apr-13 22:31N 29°56' W 090°00'0 0.0
2015-Apr-13 21:33N 29°56' W 090°00'0 0.0
2015-Apr-13 20:33N 29°56' W 090°00'0 0.4
2015-Apr-13 19:30N 29°56' W 089°60'3 1.9
2015-Apr-13 18:04N 29°55' W 089°57'3 5.8
2015-Apr-13 17:32N 29°56' W 090°00'0 0.0
2015-Apr-13 16:33N 29°56' W 090°00'0 0.0
2015-Apr-13 15:31N 29°56' W 090°00'0 0.0
2015-Apr-13 14:26N 29°56' W 090°00'0 0.0
2015-Apr-13 13:30N 29°56' W 090°00'0 0.0
2015-Apr-13 12:04N 29°56' W 090°00'2 0.1
2015-Apr-12 20:28N 29°58' W 090°02'2 0.5
2015-Apr-12 17:08N 29°56' W 090°00'0 0.0
2015-Apr-12 16:33N 29°56' W 090°00'2 1.4
2015-Apr-12 15:09N 29°58' W 090°02'1 1.5
2015-Apr-12 14:24N 29°59' W 090°01'5 4.6
2015-Apr-12 13:22N 30°00' W 089°56'5 5.5
2015-Apr-12 12:21N 29°58' W 090°02'2 2.5
2015-Apr-12 11:33N 29°56' W 090°00'2 2.2
2015-Apr-12 10:33N 29°58' W 090°02'1 0.6
2015-Apr-12 09:33N 29°58' W 090°02'0 0.2
2015-Apr-12 07:32N 29°58' W 090°02'2 1.8
2015-Apr-12 06:30N 29°60' W 090°01'1 1.2
2015-Apr-12 05:30N 29°60' W 089°59'1 1.5
2015-Apr-12 04:32N 29°60' W 090°01'2 2.0
2015-Apr-12 03:33N 29°58' W 090°02'1 1.0
2015-Apr-12 02:33N 29°58' W 090°03'1 1.3
2015-Apr-12 01:32N 29°57' W 090°02'1 1.2
2015-Apr-12 00:32N 29°56' W 090°00'2 1.1
2015-Apr-11 22:33N 29°55' W 089°58'1 0.5
2015-Apr-11 20:09N 29°54' W 089°59'1 0.8
2015-Apr-11 18:31N 29°55' W 089°58'4 2.0
2015-Apr-11 16:27N 29°57' W 090°02'2 0.1
2015-Apr-11 02:18N 29°56' W 090°00'0 0.0
2015-Apr-11 00:32N 29°56' W 090°00'  

Dump ship's entire track history